createdAt,value
2018-02-24T00:00:28.817Z,21.90
2018-02-24T00:01:32.465Z,17.73
2018-02-24T00:02:35.882Z,21.02
2018-02-24T00:03:39.182Z,21.17
2018-02-24T00:04:42.615Z,20.88
2018-02-24T00:05:46.100Z,23.20
2018-02-24T00:06:49.487Z,23.17
2018-02-24T00:07:52.830Z,20.20
2018-02-24T00:08:56.148Z,24.75
2018-02-24T00:09:59.561Z,19.15
2018-02-24T00:11:03.067Z,20.10
2018-02-24T00:12:06.431Z,22.50
2018-02-24T00:13:09.756Z,17.73
2018-02-24T00:14:13.121Z,20.05
2018-02-24T00:15:16.463Z,22.15
2018-02-24T00:16:19.915Z,32.70
2018-02-24T00:17:23.328Z,23.30
2018-02-24T00:18:26.760Z,24.23
2018-02-24T00:19:30.178Z,19.48
2018-02-24T00:20:33.520Z,15.88
2018-02-24T00:21:36.858Z,19.92
2018-02-24T00:22:42.935Z,15.43
2018-02-24T00:23:46.353Z,22.75
2018-02-24T00:24:49.664Z,20.10
2018-02-24T00:25:53.244Z,15.57
2018-02-24T00:26:56.568Z,21.85
2018-02-24T00:27:59.903Z,18.12
2018-02-24T00:29:03.225Z,23.00
2018-02-24T00:30:06.618Z,25.45
2018-02-24T00:31:10.025Z,21.02
2018-02-24T00:32:13.389Z,21.50
2018-02-24T00:33:16.737Z,17.45
2018-02-24T00:34:20.128Z,20.73
2018-02-24T00:35:23.510Z,22.13
2018-02-24T00:36:26.929Z,28.05
2018-02-24T00:37:30.271Z,22.45
2018-02-24T00:38:33.596Z,19.85
2018-02-24T00:39:36.978Z,24.52
2018-02-24T00:40:40.288Z,22.00
2018-02-24T00:41:43.759Z,21.23
2018-02-24T00:42:47.201Z,21.40
2018-02-24T00:43:50.604Z,24.23
2018-02-24T00:44:53.973Z,21.02
2018-02-24T00:45:57.319Z,21.40
2018-02-24T00:47:00.707Z,25.75
2018-02-24T00:48:04.141Z,25.33
2018-02-24T00:49:07.452Z,18.80
2018-02-24T00:50:10.808Z,24.80
2018-02-24T00:51:14.230Z,24.75
2018-02-24T00:52:17.615Z,22.42
2018-02-24T00:53:20.968Z,22.83
2018-02-24T00:54:24.359Z,20.10
2018-02-24T00:55:27.703Z,24.20
2018-02-24T00:56:31.053Z,27.13
2018-02-24T00:57:34.402Z,21.42
2018-02-24T00:58:37.746Z,20.15
2018-02-24T00:59:41.083Z,23.45
2018-02-24T01:00:44.386Z,22.55
2018-02-24T01:01:48.098Z,23.95
2018-02-24T01:02:51.431Z,24.00
2018-02-24T01:03:54.825Z,21.55
2018-02-24T01:04:58.145Z,29.40
2018-02-24T01:06:01.598Z,22.00
2018-02-24T01:07:04.914Z,24.15
2018-02-24T01:08:08.308Z,19.30
2018-02-24T01:09:11.801Z,19.60
2018-02-24T01:10:15.576Z,21.87
2018-02-24T01:11:18.876Z,30.88
2018-02-24T01:12:22.237Z,25.73
2018-02-24T01:13:25.634Z,24.87
2018-02-24T01:14:29.053Z,28.30
2018-02-24T01:15:32.450Z,27.10
2018-02-24T01:16:35.762Z,22.67
2018-02-24T01:17:39.167Z,22.90
2018-02-24T01:18:42.608Z,28.60
2018-02-24T01:19:46.117Z,29.33
2018-02-24T01:20:49.450Z,21.50
2018-02-24T01:21:52.781Z,21.33
2018-02-24T01:22:56.112Z,27.23
2018-02-24T01:23:59.456Z,24.90
2018-02-24T01:25:02.870Z,24.80
2018-02-24T01:26:06.167Z,25.42
2018-02-24T01:27:09.497Z,23.87
2018-02-24T01:28:12.863Z,24.80
2018-02-24T01:29:16.302Z,25.45
2018-02-24T01:30:19.695Z,18.10
2018-02-24T01:31:23.042Z,20.65
2018-02-24T01:32:26.356Z,24.58
2018-02-24T01:33:29.651Z,22.92
2018-02-24T01:34:32.992Z,23.10
2018-02-24T01:35:36.316Z,26.10
2018-02-24T01:36:39.662Z,23.70
2018-02-24T01:37:43.008Z,28.83
2018-02-24T01:38:46.436Z,27.92
2018-02-24T01:39:49.872Z,28.12
2018-02-24T01:40:53.215Z,30.40
2018-02-24T01:41:56.597Z,27.30
2018-02-24T01:42:59.967Z,28.87
2018-02-24T01:44:03.271Z,24.65
2018-02-24T01:45:06.707Z,24.80
2018-02-24T01:46:10.013Z,29.65
2018-02-24T01:47:13.370Z,25.30
2018-02-24T01:48:16.712Z,28.65
2018-02-24T01:49:20.019Z,27.77
2018-02-24T01:50:23.434Z,25.77
2018-02-24T01:51:26.749Z,29.48
2018-02-24T01:52:30.080Z,25.52
2018-02-24T01:53:33.440Z,27.13
2018-02-24T01:54:36.808Z,19.87
2018-02-24T01:55:40.136Z,20.45
2018-02-24T01:56:43.447Z,27.85
2018-02-24T01:57:46.798Z,28.77
2018-02-24T01:58:50.138Z,19.92
2018-02-24T01:59:53.488Z,23.75
2018-02-24T02:00:57.428Z,40.97
2018-02-24T02:02:00.956Z,23.83
2018-02-24T02:03:05.119Z,34.47
2018-02-24T02:04:08.519Z,20.55
2018-02-24T02:05:12.406Z,30.92
2018-02-24T02:06:15.840Z,21.25
2018-02-24T02:07:19.155Z,30.23
2018-02-24T02:08:22.578Z,35.20
2018-02-24T02:09:25.928Z,35.33
2018-02-24T02:10:29.340Z,32.38
2018-02-24T02:11:32.728Z,39.50
2018-02-24T02:12:36.034Z,30.77
2018-02-24T02:13:39.498Z,33.40
2018-02-24T02:14:42.815Z,31.27
2018-02-24T02:15:46.219Z,31.50
2018-02-24T02:16:49.601Z,32.15
2018-02-24T02:17:52.971Z,33.83
2018-02-24T02:18:56.276Z,40.80
2018-02-24T02:19:59.610Z,33.35
2018-02-24T02:21:02.972Z,29.67
2018-02-24T02:22:06.366Z,28.80
2018-02-24T02:23:09.690Z,36.03
2018-02-24T02:24:13.088Z,31.80
2018-02-24T02:25:16.437Z,25.92
2018-02-24T02:26:19.840Z,23.73
2018-02-24T02:27:23.172Z,30.05
2018-02-24T02:28:26.493Z,32.30
2018-02-24T02:29:29.876Z,33.42
2018-02-24T02:30:33.220Z,27.98
2018-02-24T02:31:36.589Z,30.62
2018-02-24T02:32:39.939Z,30.25
2018-02-24T02:33:43.395Z,30.55
2018-02-24T02:34:46.690Z,34.78
2018-02-24T02:35:50.088Z,33.25
2018-02-24T02:36:53.453Z,36.67
2018-02-24T02:37:56.778Z,30.00
2018-02-24T02:39:00.089Z,22.42
2018-02-24T02:40:03.418Z,35.72
2018-02-24T02:41:06.742Z,35.22
2018-02-24T02:42:10.203Z,34.67
2018-02-24T02:43:13.545Z,32.35
2018-02-24T02:44:16.906Z,36.53
2018-02-24T02:45:20.231Z,35.75
2018-02-24T02:46:23.600Z,32.40
2018-02-24T02:47:26.965Z,30.42
2018-02-24T02:48:30.393Z,36.45
2018-02-24T02:49:33.745Z,41.88
2018-02-24T02:50:37.170Z,35.15
2018-02-24T02:51:40.484Z,34.35
2018-02-24T02:52:43.789Z,32.10
2018-02-24T02:53:47.136Z,29.67
2018-02-24T02:54:50.541Z,40.90
2018-02-24T02:55:53.928Z,36.88
2018-02-24T02:56:57.247Z,33.55
2018-02-24T02:58:00.705Z,32.00
2018-02-24T02:59:04.051Z,41.85
2018-02-24T03:00:07.392Z,38.85
2018-02-24T03:01:10.705Z,34.15
2018-02-24T03:02:14.347Z,36.60
2018-02-24T03:03:17.694Z,33.17
2018-02-24T03:04:21.182Z,36.03
2018-02-24T03:05:25.284Z,35.70
2018-02-24T03:06:28.606Z,32.80
2018-02-24T03:07:31.998Z,36.30
2018-02-24T03:08:35.375Z,37.28
2018-02-24T03:09:38.735Z,34.33
2018-02-24T03:10:42.083Z,37.40
2018-02-24T03:11:45.552Z,36.83
2018-02-24T03:12:49.031Z,37.25
2018-02-24T03:13:52.542Z,33.72
2018-02-24T03:14:55.865Z,32.20
2018-02-24T03:15:59.255Z,35.67
2018-02-24T03:17:02.619Z,32.17
2018-02-24T03:18:05.983Z,35.15
2018-02-24T03:19:09.367Z,35.70
2018-02-24T03:20:12.787Z,33.55
2018-02-24T03:21:16.139Z,39.05
2018-02-24T03:22:19.530Z,35.38
2018-02-24T03:23:22.837Z,30.50
2018-02-24T03:24:26.152Z,41.65
2018-02-24T03:25:29.501Z,36.20
2018-02-24T03:26:32.832Z,39.63
2018-02-24T03:27:36.253Z,38.28
2018-02-24T03:28:39.661Z,35.20
2018-02-24T03:29:43.066Z,31.45
2018-02-24T03:30:46.532Z,33.80
2018-02-24T03:31:49.921Z,33.60
2018-02-24T03:32:53.292Z,35.33
2018-02-24T03:33:56.590Z,37.53
2018-02-24T03:34:59.972Z,33.80
2018-02-24T03:36:03.411Z,39.05
2018-02-24T03:37:06.744Z,37.53
2018-02-24T03:38:10.130Z,40.12
2018-02-24T03:39:13.551Z,38.47
2018-02-24T03:40:16.939Z,36.63
2018-02-24T03:41:20.346Z,44.00
2018-02-24T03:42:23.707Z,38.17
2018-02-24T03:43:27.332Z,37.70
2018-02-24T03:44:30.664Z,28.23
2018-02-24T03:45:35.844Z,41.15
2018-02-24T03:46:39.228Z,37.15
2018-02-24T03:47:42.639Z,39.42
2018-02-24T03:48:45.961Z,31.42
2018-02-24T03:49:49.452Z,35.92
2018-02-24T03:50:52.816Z,32.05
2018-02-24T03:51:56.175Z,32.65
2018-02-24T03:52:59.484Z,33.42
2018-02-24T03:54:02.895Z,32.75
2018-02-24T03:55:06.215Z,38.63
2018-02-24T03:56:09.719Z,35.83
2018-02-24T03:57:13.050Z,33.75
2018-02-24T03:58:16.393Z,45.55
2018-02-24T03:59:19.719Z,33.95
2018-02-24T04:00:23.035Z,39.45
2018-02-24T04:01:26.711Z,37.30
2018-02-24T04:02:30.403Z,40.00
2018-02-24T04:03:33.751Z,35.72
2018-02-24T04:04:37.076Z,33.95
2018-02-24T04:05:40.404Z,36.60
2018-02-24T04:06:43.829Z,36.03
2018-02-24T04:07:47.285Z,34.05
2018-02-24T04:08:50.618Z,35.45
2018-02-24T04:09:53.993Z,35.15
2018-02-24T04:10:57.371Z,34.33
2018-02-24T04:12:00.776Z,41.00
2018-02-24T04:13:04.127Z,36.85
2018-02-24T04:14:07.585Z,39.72
2018-02-24T04:15:10.898Z,35.53
2018-02-24T04:16:14.230Z,34.80
2018-02-24T04:17:17.574Z,32.00
2018-02-24T04:18:20.931Z,33.47
2018-02-24T04:19:24.316Z,35.60
2018-02-24T04:20:27.744Z,35.70
2018-02-24T04:21:31.082Z,40.85
2018-02-24T04:22:34.569Z,40.60
2018-02-24T04:23:37.899Z,32.63
2018-02-24T04:24:41.335Z,34.15
2018-02-24T04:25:44.679Z,34.15
2018-02-24T04:26:48.020Z,34.58
2018-02-24T04:27:51.508Z,37.88
2018-02-24T04:28:54.942Z,36.45
2018-02-24T04:29:58.334Z,36.65
2018-02-24T04:31:01.769Z,35.55
2018-02-24T04:32:05.249Z,37.13
2018-02-24T04:33:08.624Z,34.67
2018-02-24T04:34:12.096Z,39.97
2018-02-24T04:35:16.149Z,29.75
2018-02-24T04:36:19.602Z,31.12
2018-02-24T04:37:22.942Z,40.03
2018-02-24T04:38:26.477Z,36.17
2018-02-24T04:39:29.832Z,37.75
2018-02-24T04:40:33.204Z,35.28
2018-02-24T04:41:36.595Z,37.78
2018-02-24T04:42:39.987Z,32.53
2018-02-24T04:43:43.379Z,33.25
2018-02-24T04:44:46.756Z,35.55
2018-02-24T04:45:50.257Z,32.83
2018-02-24T04:46:53.579Z,32.55
2018-02-24T04:47:56.943Z,41.10
2018-02-24T04:49:00.313Z,31.55
2018-02-24T04:50:03.811Z,31.10
2018-02-24T04:51:07.183Z,34.35
2018-02-24T04:52:10.577Z,32.75
2018-02-24T04:53:13.960Z,33.60
2018-02-24T04:54:17.353Z,31.48
2018-02-24T04:55:20.771Z,33.95
2018-02-24T04:56:24.131Z,36.83
2018-02-24T04:57:27.515Z,35.10
2018-02-24T04:58:30.840Z,35.30
2018-02-24T04:59:34.287Z,29.10
2018-02-24T05:00:37.635Z,32.55
2018-02-24T05:01:41.017Z,34.60
2018-02-24T05:02:44.615Z,36.47
2018-02-24T05:03:48.001Z,31.58
2018-02-24T05:04:51.347Z,32.50
2018-02-24T05:05:54.746Z,35.50
2018-02-24T05:06:58.064Z,36.55
2018-02-24T05:08:01.402Z,31.60
2018-02-24T05:09:04.727Z,34.47
2018-02-24T05:10:08.111Z,31.05
2018-02-24T05:11:11.548Z,34.70
2018-02-24T05:12:14.961Z,37.13
2018-02-24T05:13:18.295Z,33.72
2018-02-24T05:14:21.617Z,36.97
2018-02-24T05:15:24.957Z,39.95
2018-02-24T05:16:28.351Z,31.95
2018-02-24T05:17:31.727Z,33.00
2018-02-24T05:18:35.067Z,33.28
2018-02-24T05:19:38.483Z,31.37
2018-02-24T05:20:41.972Z,30.85
2018-02-24T05:21:45.508Z,32.58
2018-02-24T05:22:48.889Z,26.98
2018-02-24T05:23:52.245Z,40.45
2018-02-24T05:24:55.685Z,37.88
2018-02-24T05:25:59.029Z,38.22
2018-02-24T05:27:02.500Z,31.25
2018-02-24T05:28:05.819Z,31.75
2018-02-24T05:29:09.174Z,27.90
2018-02-24T05:30:12.510Z,32.58
2018-02-24T05:31:15.989Z,30.00
2018-02-24T05:32:19.465Z,28.52
2018-02-24T05:33:22.783Z,31.85
2018-02-24T05:34:26.501Z,31.00
2018-02-24T05:35:29.840Z,35.10
2018-02-24T05:36:33.212Z,29.23
2018-02-24T05:37:36.584Z,35.30
2018-02-24T05:38:40.398Z,33.92
2018-02-24T05:39:43.733Z,28.55
2018-02-24T05:40:47.097Z,27.83
2018-02-24T05:41:50.511Z,29.02
2018-02-24T05:42:54.029Z,30.95
2018-02-24T05:43:57.386Z,29.63
2018-02-24T05:45:00.777Z,30.20
2018-02-24T05:46:04.096Z,27.52
2018-02-24T05:47:07.600Z,27.83
2018-02-24T05:48:11.044Z,25.17
2018-02-24T05:49:14.440Z,29.33
2018-02-24T05:50:17.757Z,31.87
2018-02-24T05:51:21.208Z,28.60
2018-02-24T05:52:24.886Z,27.58
2018-02-24T05:53:28.428Z,32.38
2018-02-24T05:54:31.779Z,31.70
2018-02-24T05:55:35.203Z,30.67
2018-02-24T05:56:38.533Z,25.80
2018-02-24T05:57:41.920Z,26.98
2018-02-24T05:58:45.275Z,31.75
2018-02-24T05:59:48.676Z,31.10
2018-02-24T06:00:52.049Z,29.98
2018-02-24T06:01:55.365Z,29.80
2018-02-24T06:02:59.037Z,30.08
2018-02-24T06:04:02.464Z,32.88
2018-02-24T06:05:05.803Z,23.92
2018-02-24T06:06:09.218Z,31.60
2018-02-24T06:07:12.605Z,35.13
2018-02-24T06:08:16.014Z,28.17
2018-02-24T06:09:19.365Z,26.02
2018-02-24T06:10:22.731Z,30.55
2018-02-24T06:11:26.056Z,31.17
2018-02-24T06:12:29.367Z,33.30
2018-02-24T06:13:32.772Z,33.35
2018-02-24T06:14:36.111Z,29.98
2018-02-24T06:15:39.664Z,36.20
2018-02-24T06:16:42.999Z,31.40
2018-02-24T06:17:46.479Z,33.53
2018-02-24T06:18:49.869Z,28.10
2018-02-24T06:19:53.324Z,27.87
2018-02-24T06:20:56.810Z,26.58
2018-02-24T06:22:00.167Z,31.25
2018-02-24T06:23:03.690Z,30.25
2018-02-24T06:24:07.040Z,31.02
2018-02-24T06:25:10.473Z,32.10
2018-02-24T06:26:13.805Z,30.70
2018-02-24T06:27:17.207Z,33.97
2018-02-24T06:28:20.644Z,28.00
2018-02-24T06:29:23.968Z,30.30
2018-02-24T06:30:27.370Z,25.52
2018-02-24T06:31:30.776Z,28.90
2018-02-24T06:32:34.191Z,30.48
2018-02-24T06:33:37.678Z,27.37
2018-02-24T06:34:41.060Z,25.90
2018-02-24T06:35:44.403Z,33.30
2018-02-24T06:36:47.772Z,26.98
2018-02-24T06:37:51.163Z,32.00
2018-02-24T06:38:54.545Z,28.52
2018-02-24T06:39:57.894Z,30.48
2018-02-24T06:41:01.244Z,24.63
2018-02-24T06:42:04.628Z,31.33
2018-02-24T06:43:07.980Z,31.92
2018-02-24T06:44:11.308Z,32.33
2018-02-24T06:45:14.698Z,24.52
2018-02-24T06:46:18.046Z,32.40
2018-02-24T06:47:21.410Z,22.25
2018-02-24T06:48:24.745Z,35.72
2018-02-24T06:49:28.133Z,27.10
2018-02-24T06:50:31.446Z,25.00
2018-02-24T06:51:34.820Z,31.60
2018-02-24T06:52:38.165Z,26.25
2018-02-24T06:53:41.534Z,31.35
2018-02-24T06:54:44.897Z,30.10
2018-02-24T06:55:48.322Z,30.77
2018-02-24T06:56:51.740Z,30.20
2018-02-24T06:57:55.116Z,32.17
2018-02-24T06:58:58.511Z,33.85
2018-02-24T07:00:01.905Z,32.03
2018-02-24T07:01:05.291Z,33.50
2018-02-24T07:02:08.658Z,25.48
2018-02-24T07:03:12.056Z,31.10
2018-02-24T07:04:15.463Z,25.42
2018-02-24T07:05:18.798Z,33.15
2018-02-24T07:06:22.199Z,28.42
2018-02-24T07:07:25.570Z,27.90
2018-02-24T07:08:28.876Z,26.87
2018-02-24T07:09:32.218Z,26.73
2018-02-24T07:10:35.591Z,28.55
2018-02-24T07:11:38.909Z,28.05
2018-02-24T07:12:43.206Z,26.42
2018-02-24T07:13:46.595Z,27.67
2018-02-24T07:14:49.982Z,29.75
2018-02-24T07:15:53.341Z,30.35
2018-02-24T07:16:56.665Z,32.13
2018-02-24T07:18:00.124Z,29.05
2018-02-24T07:19:03.629Z,25.52
2018-02-24T07:20:07.124Z,26.67
2018-02-24T07:21:10.503Z,31.67
2018-02-24T07:22:13.821Z,32.15
2018-02-24T07:23:17.175Z,29.75
2018-02-24T07:24:20.488Z,30.37
2018-02-24T07:25:23.812Z,26.90
2018-02-24T07:26:27.258Z,29.73
2018-02-24T07:27:30.753Z,30.17
2018-02-24T07:28:34.929Z,29.50
2018-02-24T07:29:38.248Z,29.12
2018-02-24T07:30:41.730Z,33.17
2018-02-24T07:31:45.109Z,30.23
2018-02-24T07:32:48.563Z,30.42
2018-02-24T07:33:51.953Z,30.80
2018-02-24T07:34:55.321Z,29.70
2018-02-24T07:35:58.686Z,28.45
2018-02-24T07:37:02.053Z,35.15
2018-02-24T07:38:05.504Z,30.58
2018-02-24T07:39:08.888Z,29.95
2018-02-24T07:40:12.245Z,25.15
2018-02-24T07:41:15.585Z,22.30
2018-02-24T07:42:18.952Z,29.65
2018-02-24T07:43:22.356Z,33.70
2018-02-24T07:44:25.794Z,34.22
2018-02-24T07:45:29.169Z,29.08
2018-02-24T07:46:32.489Z,24.73
2018-02-24T07:47:35.835Z,30.37
2018-02-24T07:48:39.145Z,26.40
2018-02-24T07:49:42.532Z,26.60
2018-02-24T07:50:49.561Z,24.50
2018-02-24T07:53:02.390Z,26.52
2018-02-24T07:54:05.735Z,33.25
2018-02-24T07:55:09.080Z,30.73
2018-02-24T07:56:12.502Z,27.50
2018-02-24T07:57:16.413Z,24.40
2018-02-24T07:58:19.762Z,26.60
2018-02-24T07:59:23.083Z,32.70
2018-02-24T08:00:26.636Z,29.83
2018-02-24T08:01:29.992Z,20.40
2018-02-24T08:02:33.330Z,18.60
2018-02-24T08:03:36.844Z,29.42
2018-02-24T08:04:40.188Z,26.17
2018-02-24T08:05:43.605Z,28.48
2018-02-24T08:06:47.288Z,30.58
2018-02-24T08:07:50.651Z,29.63
2018-02-24T08:08:53.990Z,28.92
2018-02-24T08:09:57.308Z,21.37
2018-02-24T08:11:01.120Z,25.35
2018-02-24T08:12:04.408Z,23.10
2018-02-24T08:13:07.725Z,22.70
2018-02-24T08:14:11.074Z,25.35
2018-02-24T08:15:14.500Z,24.98
2018-02-24T08:16:17.970Z,36.60
2018-02-24T08:17:21.307Z,28.08
2018-02-24T08:18:24.724Z,24.23
2018-02-24T08:19:28.048Z,27.73
2018-02-24T08:20:31.412Z,25.20
2018-02-24T08:21:34.732Z,20.10
2018-02-24T08:22:38.053Z,15.07
2018-02-24T08:23:41.440Z,21.35
2018-02-24T08:24:44.883Z,20.88
2018-02-24T08:25:48.196Z,26.67
2018-02-24T08:26:51.543Z,18.65
2018-02-24T08:27:54.866Z,21.70
2018-02-24T08:28:58.206Z,25.77
2018-02-24T08:30:01.682Z,16.23
2018-02-24T08:31:05.045Z,20.15
2018-02-24T08:32:08.515Z,14.73
2018-02-24T08:33:11.858Z,19.73
2018-02-24T08:34:15.243Z,19.20
2018-02-24T08:35:19.634Z,21.87
2018-02-24T08:36:22.978Z,13.00
2018-02-24T08:37:26.361Z,23.95
2018-02-24T08:38:29.835Z,17.45
2018-02-24T08:39:33.236Z,17.58
2018-02-24T08:40:36.761Z,25.73
2018-02-24T08:41:40.073Z,18.95
2018-02-24T08:42:43.449Z,23.20
2018-02-24T08:43:46.810Z,21.48
2018-02-24T08:44:50.230Z,25.88
2018-02-24T08:45:53.663Z,27.23
2018-02-24T08:46:57.039Z,20.20
2018-02-24T08:48:01.293Z,17.80
2018-02-24T08:49:04.636Z,11.18
2018-02-24T08:50:08.028Z,20.55
2018-02-24T08:51:11.468Z,18.95
2018-02-24T08:52:14.800Z,20.00
2018-02-24T08:53:18.178Z,23.17
2018-02-24T08:54:21.726Z,11.90
2018-02-24T08:55:25.113Z,19.75
2018-02-24T08:56:28.661Z,18.40
2018-02-24T08:57:32.017Z,18.50
2018-02-24T08:58:35.395Z,22.08
2018-02-24T08:59:38.886Z,14.35
2018-02-24T09:00:42.253Z,18.27
2018-02-24T09:01:45.599Z,21.27
2018-02-24T09:02:48.904Z,12.93
2018-02-24T09:03:52.440Z,17.02
2018-02-24T09:04:55.813Z,15.95
2018-02-24T09:05:59.106Z,19.10
2018-02-24T09:07:02.449Z,17.25
2018-02-24T09:08:05.760Z,19.67
2018-02-24T09:09:09.143Z,15.48
2018-02-24T09:10:12.445Z,10.63
2018-02-24T09:11:15.811Z,11.75
2018-02-24T09:12:19.144Z,24.45
2018-02-24T09:13:22.502Z,13.20
2018-02-24T09:14:25.964Z,11.12
2018-02-24T09:15:29.350Z,12.80
2018-02-24T09:16:32.672Z,14.45
2018-02-24T09:17:36.107Z,16.37
2018-02-24T09:18:39.527Z,14.52
2018-02-24T09:19:42.883Z,11.50
2018-02-24T09:20:46.424Z,8.93
2018-02-24T09:21:49.751Z,12.32
2018-02-24T09:22:53.130Z,17.55
2018-02-24T09:23:56.472Z,12.20
2018-02-24T09:24:59.814Z,10.70
2018-02-24T09:26:03.171Z,20.37
2018-02-24T09:27:06.499Z,9.80
2018-02-24T09:28:09.795Z,12.93
2018-02-24T09:29:13.105Z,15.43
2018-02-24T09:30:16.432Z,11.88
2018-02-24T09:31:19.787Z,15.68
2018-02-24T09:32:23.196Z,16.20
2018-02-24T09:33:27.051Z,11.93
2018-02-24T09:34:30.460Z,8.00
2018-02-24T09:35:33.864Z,17.60
2018-02-24T09:36:37.184Z,11.57
2018-02-24T09:37:40.892Z,7.30
2018-02-24T09:38:44.294Z,12.50
2018-02-24T09:39:47.762Z,17.52
2018-02-24T09:40:51.131Z,9.18
2018-02-24T09:41:54.565Z,12.60
2018-02-24T09:42:57.883Z,13.50
2018-02-24T09:44:01.280Z,14.77
2018-02-24T09:45:04.598Z,14.38
2018-02-24T09:46:07.935Z,13.98
2018-02-24T09:47:11.327Z,16.65
2018-02-24T09:48:14.709Z,10.25
2018-02-24T09:49:17.991Z,13.02
2018-02-24T09:50:21.360Z,15.85
2018-02-24T09:51:24.888Z,15.15
2018-02-24T09:52:28.207Z,17.42
2018-02-24T09:53:31.528Z,17.67
2018-02-24T09:54:34.863Z,9.73
2018-02-24T09:55:38.164Z,15.60
2018-02-24T09:56:41.524Z,12.98
2018-02-24T09:57:44.828Z,16.50
2018-02-24T09:58:48.205Z,17.23
2018-02-24T09:59:51.549Z,17.08
2018-02-24T10:00:54.868Z,12.68
2018-02-24T10:01:58.254Z,13.15
2018-02-24T10:03:01.639Z,12.48
2018-02-24T10:04:05.193Z,10.80
2018-02-24T10:05:08.520Z,12.68
2018-02-24T10:06:11.971Z,15.25
2018-02-24T10:07:15.334Z,16.40
2018-02-24T10:08:18.640Z,12.52
2018-02-24T10:09:22.102Z,15.40
2018-02-24T10:10:25.417Z,15.05
2018-02-24T10:11:28.794Z,13.62
2018-02-24T10:12:32.180Z,18.58
2018-02-24T10:13:35.495Z,15.93
2018-02-24T10:14:38.933Z,16.02
2018-02-24T10:15:42.292Z,8.63
2018-02-24T10:16:45.636Z,10.70
2018-02-24T10:17:49.021Z,12.20
2018-02-24T10:18:52.374Z,13.65
2018-02-24T10:19:55.962Z,12.52
2018-02-24T10:20:59.264Z,29.35
2018-02-24T10:22:02.649Z,21.42
2018-02-24T10:23:05.974Z,9.18
2018-02-24T10:24:09.559Z,14.40
2018-02-24T10:25:12.888Z,15.60
2018-02-24T10:26:16.207Z,12.70
2018-02-24T10:27:19.575Z,11.23
2018-02-24T10:28:22.921Z,16.12
2018-02-24T10:29:26.328Z,11.35
2018-02-24T10:30:29.641Z,14.57
2018-02-24T10:31:33.101Z,14.43
2018-02-24T10:32:36.459Z,14.38
2018-02-24T10:33:39.912Z,9.27
2018-02-24T10:34:43.262Z,11.55
2018-02-24T10:35:46.576Z,13.85
2018-02-24T10:36:49.985Z,15.82
2018-02-24T10:37:53.333Z,12.52
2018-02-24T10:38:56.691Z,8.75
2018-02-24T10:40:00.028Z,14.70
2018-02-24T10:41:03.333Z,14.65
2018-02-24T10:42:06.724Z,10.40
2018-02-24T10:43:10.000Z,13.45
2018-02-24T10:44:13.401Z,9.05
2018-02-24T10:45:16.853Z,9.10
2018-02-24T10:46:20.144Z,9.32
2018-02-24T10:47:23.560Z,15.20
2018-02-24T10:48:26.859Z,12.50
2018-02-24T10:49:30.252Z,14.13
2018-02-24T10:50:33.564Z,15.30
2018-02-24T10:51:36.926Z,13.18
2018-02-24T10:52:40.308Z,11.48
2018-02-24T10:53:43.643Z,13.07
2018-02-24T10:54:47.148Z,10.90
2018-02-24T10:55:50.551Z,6.30
2018-02-24T10:56:53.877Z,9.70
2018-02-24T10:57:57.188Z,12.95
2018-02-24T10:59:00.467Z,9.05
2018-02-24T11:00:03.796Z,11.02
2018-02-24T11:01:07.238Z,12.13
2018-02-24T11:02:10.543Z,13.48
2018-02-24T11:03:13.880Z,11.20
2018-02-24T11:04:17.336Z,11.27
2018-02-24T11:05:20.853Z,13.30
2018-02-24T11:06:24.297Z,13.02
2018-02-24T11:07:27.680Z,10.45
2018-02-24T11:08:31.024Z,13.07
2018-02-24T11:09:34.332Z,61.83
2018-02-24T11:10:37.712Z,21.83
2018-02-24T11:11:41.010Z,15.93
2018-02-24T11:12:44.437Z,15.38
2018-02-24T11:13:47.844Z,14.02
2018-02-24T11:14:51.160Z,17.05
2018-02-24T11:15:54.572Z,15.60
2018-02-24T11:16:57.938Z,14.60
2018-02-24T11:18:01.275Z,17.65
2018-02-24T11:19:04.620Z,16.60
2018-02-24T11:20:08.013Z,10.15
2018-02-24T11:21:11.338Z,17.25
2018-02-24T11:22:14.752Z,14.27
2018-02-24T11:23:18.063Z,8.05
2018-02-24T11:24:21.429Z,12.77
2018-02-24T11:25:24.733Z,18.42
2018-02-24T11:26:28.120Z,13.30
2018-02-24T11:27:31.524Z,12.75
2018-02-24T11:28:34.849Z,13.93
2018-02-24T11:29:38.174Z,14.48
2018-02-24T11:30:41.623Z,16.20
2018-02-24T11:31:44.990Z,15.05
2018-02-24T11:32:49.357Z,16.33
2018-02-24T11:33:52.707Z,11.80
2018-02-24T11:34:56.026Z,14.55
2018-02-24T11:35:59.314Z,16.50
2018-02-24T11:37:02.816Z,14.25
2018-02-24T11:38:06.184Z,18.15
2018-02-24T11:39:09.775Z,13.70
2018-02-24T11:40:13.144Z,23.55
2018-02-24T11:41:16.708Z,16.40
2018-02-24T11:42:20.050Z,5.50
2018-02-24T11:43:23.351Z,15.85
2018-02-24T11:44:26.700Z,15.13
2018-02-24T11:45:30.032Z,13.40
2018-02-24T11:46:33.412Z,13.70
2018-02-24T11:47:36.735Z,10.13
2018-02-24T11:48:40.162Z,15.07
2018-02-24T11:49:43.579Z,13.82
2018-02-24T11:50:46.976Z,16.30
2018-02-24T11:51:50.403Z,14.77
2018-02-24T11:52:53.821Z,13.30
2018-02-24T11:53:57.123Z,12.25
2018-02-24T11:55:00.419Z,18.48
2018-02-24T11:56:03.746Z,13.27
2018-02-24T11:57:07.246Z,11.82
2018-02-24T11:58:10.566Z,17.17
2018-02-24T11:59:13.873Z,16.25
2018-02-24T12:00:17.240Z,14.93
2018-02-24T12:01:20.657Z,10.63
2018-02-24T12:02:24.250Z,11.23
2018-02-24T12:03:27.671Z,18.33
2018-02-24T12:04:31.257Z,16.60
2018-02-24T12:05:34.748Z,11.30
2018-02-24T12:06:38.098Z,16.40
2018-02-24T12:07:41.515Z,9.30
2018-02-24T12:08:44.852Z,14.93
2018-02-24T12:09:48.306Z,18.17
2018-02-24T12:10:51.706Z,16.98
2018-02-24T12:11:55.004Z,16.08
2018-02-24T12:12:58.327Z,11.43
2018-02-24T12:14:01.754Z,11.38
2018-02-24T12:15:05.113Z,21.40
2018-02-24T12:16:08.522Z,21.10
2018-02-24T12:17:11.954Z,19.42
2018-02-24T12:18:15.291Z,13.60
2018-02-24T12:19:18.722Z,11.15
2018-02-24T12:20:22.336Z,10.18
2018-02-24T12:21:25.720Z,9.35
2018-02-24T12:22:29.072Z,11.77
2018-02-24T12:23:32.402Z,13.95
2018-02-24T12:24:35.896Z,8.57
2018-02-24T12:25:39.416Z,12.57
2018-02-24T12:26:42.730Z,12.23
2018-02-24T12:27:46.038Z,24.85
2018-02-24T12:28:49.356Z,12.95
2018-02-24T12:29:52.710Z,15.05
2018-02-24T12:30:56.021Z,14.65
2018-02-24T12:31:59.365Z,11.70
2018-02-24T12:33:02.687Z,10.60
2018-02-24T12:34:06.072Z,13.05
2018-02-24T12:35:09.640Z,12.85
2018-02-24T12:36:13.043Z,11.90
2018-02-24T12:37:16.396Z,12.50
2018-02-24T12:38:19.745Z,15.25
2018-02-24T12:39:23.128Z,9.25
2018-02-24T12:40:26.481Z,10.68
2018-02-24T12:41:29.893Z,13.68
2018-02-24T12:42:33.201Z,15.60
2018-02-24T12:43:36.651Z,13.75
2018-02-24T12:44:40.048Z,12.93
2018-02-24T12:45:43.454Z,16.33
2018-02-24T12:46:46.856Z,15.38
2018-02-24T12:47:50.189Z,15.38
2018-02-24T12:48:53.541Z,10.50
2018-02-24T12:49:56.833Z,11.63
2018-02-24T12:51:00.164Z,10.75
2018-02-24T12:52:03.484Z,8.80
2018-02-24T12:53:06.834Z,10.40
2018-02-24T12:54:10.148Z,12.18
2018-02-24T12:55:13.534Z,13.48
2018-02-24T12:56:16.905Z,9.13
2018-02-24T12:57:20.256Z,13.80
2018-02-24T12:58:23.552Z,8.27
2018-02-24T12:59:26.876Z,8.63
2018-02-24T13:00:30.199Z,14.15
2018-02-24T13:01:33.550Z,10.65
2018-02-24T13:02:36.893Z,11.48
2018-02-24T13:03:41.034Z,13.95
2018-02-24T13:04:44.632Z,14.48
2018-02-24T13:05:47.968Z,17.23
2018-02-24T13:06:51.304Z,9.18
2018-02-24T13:07:54.621Z,10.90
2018-02-24T13:08:58.159Z,12.25
2018-02-24T13:10:01.454Z,11.12
2018-02-24T13:11:04.744Z,12.02
2018-02-24T13:12:08.073Z,12.80
2018-02-24T13:13:11.449Z,15.10
2018-02-24T13:14:14.772Z,11.75
2018-02-24T13:15:18.081Z,6.28
2018-02-24T13:16:21.423Z,9.05
2018-02-24T13:17:24.898Z,9.80
2018-02-24T13:18:28.737Z,9.23
2018-02-24T13:19:32.055Z,12.27
2018-02-24T13:20:35.612Z,11.20
2018-02-24T13:21:38.964Z,14.43
2018-02-24T13:22:42.296Z,10.40
2018-02-24T13:23:45.621Z,8.48
2018-02-24T13:24:48.974Z,12.10
2018-02-24T13:25:52.308Z,13.82
2018-02-24T13:26:55.648Z,11.07
2018-02-24T13:27:59.058Z,6.53
2018-02-24T13:29:02.441Z,10.35
2018-02-24T13:30:05.751Z,10.13
2018-02-24T13:31:09.064Z,9.80
2018-02-24T13:32:12.474Z,5.85
2018-02-24T13:33:15.934Z,11.70
2018-02-24T13:34:19.360Z,14.52
2018-02-24T13:35:22.688Z,13.15
2018-02-24T13:36:26.044Z,12.80
2018-02-24T13:37:29.342Z,10.63
2018-02-24T13:38:32.757Z,13.55